createdAt,value
2022-10-07T00:01:58.599Z,102507.00
2022-10-07T00:04:31.468Z,102505.00
2022-10-07T00:07:04.425Z,102501.00
2022-10-07T00:09:37.301Z,102497.00
2022-10-07T00:12:10.527Z,102511.00
2022-10-07T00:14:44.491Z,102511.00
2022-10-07T00:17:17.638Z,102509.00
2022-10-07T00:19:50.585Z,102518.00
2022-10-07T00:22:24.081Z,102527.00
2022-10-07T00:24:56.859Z,102533.00
2022-10-07T00:27:29.924Z,102524.00
2022-10-07T00:32:57.178Z,102523.00
2022-10-07T00:35:30.089Z,102526.00
2022-10-07T00:38:02.847Z,102532.00
2022-10-07T00:40:35.964Z,102523.00
2022-10-07T00:43:26.286Z,102523.00
2022-10-07T00:46:01.903Z,102531.00
2022-10-07T00:48:36.434Z,102527.00
2022-10-07T00:51:10.538Z,102541.00
2022-10-07T00:53:44.716Z,102541.00
2022-10-07T00:56:19.280Z,102537.00
2022-10-07T00:58:53.929Z,102533.00
2022-10-07T01:01:27.167Z,102529.00
2022-10-07T01:04:00.036Z,102528.00
2022-10-07T01:06:32.999Z,102543.00
2022-10-07T01:09:06.029Z,102532.00
2022-10-07T01:11:57.306Z,102542.00
2022-10-07T01:14:44.765Z,102535.00
2022-10-07T01:17:39.503Z,102530.00
2022-10-07T01:20:36.793Z,102537.00
2022-10-07T01:23:11.362Z,102537.00
2022-10-07T01:26:16.665Z,102538.00
2022-10-07T01:28:57.500Z,102528.00
2022-10-07T01:31:32.429Z,102531.00
2022-10-07T01:34:06.771Z,102550.00
2022-10-07T01:36:40.410Z,102540.00
2022-10-07T01:39:15.482Z,102544.00
2022-10-07T01:41:48.649Z,102542.00
2022-10-07T01:44:21.859Z,102533.00
2022-10-07T01:46:54.751Z,102534.00
2022-10-07T01:49:27.724Z,102544.00
2022-10-07T01:52:14.726Z,102530.00
2022-10-07T01:54:52.604Z,102529.00
2022-10-07T01:57:37.358Z,102541.00
2022-10-07T02:00:15.034Z,102536.00
2022-10-07T02:02:58.579Z,102535.00
2022-10-07T02:05:45.473Z,102544.00
2022-10-07T02:08:28.722Z,102530.00
2022-10-07T02:11:09.274Z,102525.00
2022-10-07T02:13:50.111Z,102537.00
2022-10-07T02:16:37.402Z,102530.00
2022-10-07T02:19:12.901Z,102525.00
2022-10-07T02:21:47.803Z,102534.00
2022-10-07T02:24:22.998Z,102527.00
2022-10-07T02:26:57.896Z,102540.00
2022-10-07T02:29:32.662Z,102533.00
2022-10-07T02:32:07.767Z,102539.00
2022-10-07T02:34:42.932Z,102540.00
2022-10-07T02:37:29.434Z,102538.00
2022-10-07T02:40:02.861Z,102540.00
2022-10-07T02:42:57.606Z,102540.00
2022-10-07T02:45:39.067Z,102547.00
2022-10-07T02:48:26.007Z,102548.00
2022-10-07T02:51:01.764Z,102538.00
2022-10-07T02:53:35.489Z,102553.00
2022-10-07T02:56:09.156Z,102541.00
2022-10-07T02:58:45.046Z,102535.00
2022-10-07T03:01:20.160Z,102537.00
2022-10-07T03:03:53.270Z,102535.00
2022-10-07T03:06:30.261Z,102531.00
2022-10-07T03:09:06.047Z,102531.00
2022-10-07T03:11:40.436Z,102534.00
2022-10-07T03:14:14.297Z,102542.00
2022-10-07T03:16:47.171Z,102534.00
2022-10-07T03:19:20.401Z,102527.00
2022-10-07T03:21:53.256Z,102529.00
2022-10-07T03:24:26.153Z,102535.00
2022-10-07T03:26:59.270Z,102533.00
2022-10-07T03:29:33.372Z,102539.00
2022-10-07T03:32:06.445Z,102539.00
2022-10-07T03:34:39.606Z,102541.00
2022-10-07T03:37:12.606Z,102546.00
2022-10-07T03:39:45.359Z,102542.00
2022-10-07T03:42:18.131Z,102548.00
2022-10-07T03:44:51.908Z,102549.00
2022-10-07T03:47:25.077Z,102549.00
2022-10-07T03:49:59.308Z,102542.00
2022-10-07T03:52:32.620Z,102553.00
2022-10-07T03:55:05.889Z,102552.00
2022-10-07T03:57:59.305Z,102558.00
2022-10-07T04:00:31.653Z,102552.00
2022-10-07T04:03:05.254Z,102552.00
2022-10-07T04:05:39.440Z,102549.00
2022-10-07T04:08:13.820Z,102554.00
2022-10-07T04:10:46.768Z,102552.00
2022-10-07T04:13:20.277Z,102557.00
2022-10-07T04:15:53.777Z,102555.00
2022-10-07T04:18:29.997Z,102552.00
2022-10-07T04:21:03.794Z,102552.00
2022-10-07T04:23:37.142Z,102558.00
2022-10-07T04:26:13.992Z,102563.00
2022-10-07T04:28:47.154Z,102574.00
2022-10-07T04:31:20.246Z,102568.00
2022-10-07T04:33:53.319Z,102576.00
2022-10-07T04:36:27.580Z,102569.00
2022-10-07T04:39:00.583Z,102572.00
2022-10-07T04:41:33.625Z,102579.00
2022-10-07T04:44:06.825Z,102580.00
2022-10-07T04:46:40.083Z,102587.00
2022-10-07T04:49:13.315Z,102580.00
2022-10-07T04:51:46.511Z,102594.00
2022-10-07T04:54:22.200Z,102586.00
2022-10-07T04:56:55.433Z,102596.00
2022-10-07T04:59:30.109Z,102590.00
2022-10-07T05:02:03.169Z,102589.00
2022-10-07T05:04:36.238Z,102591.00
2022-10-07T05:07:10.504Z,102602.00
2022-10-07T05:09:43.773Z,102606.00
2022-10-07T05:12:16.752Z,102605.00
2022-10-07T05:14:55.114Z,102608.00
2022-10-07T05:17:28.273Z,102606.00
2022-10-07T05:20:01.418Z,102609.00
2022-10-07T05:22:34.347Z,102614.00
2022-10-07T05:25:07.729Z,102614.00
2022-10-07T05:27:41.080Z,102610.00
2022-10-07T05:30:15.055Z,102618.00
2022-10-07T05:32:48.088Z,102611.00
2022-10-07T05:35:21.108Z,102620.00
2022-10-07T05:37:57.881Z,102617.00
2022-10-07T05:40:31.006Z,102626.00
2022-10-07T05:43:03.978Z,102634.00
2022-10-07T05:45:37.083Z,102642.00
2022-10-07T05:48:10.074Z,102642.00
2022-10-07T05:50:42.983Z,102650.00
2022-10-07T05:53:15.940Z,102644.00
2022-10-07T05:55:48.835Z,102657.00
2022-10-07T05:58:22.183Z,102660.00
2022-10-07T06:01:04.836Z,102659.00
2022-10-07T06:03:34.324Z,102664.00
2022-10-07T06:06:07.568Z,102661.00
2022-10-07T06:08:40.678Z,102666.00
2022-10-07T06:11:32.938Z,102670.00
2022-10-07T06:14:06.987Z,102663.00
2022-10-07T06:16:40.581Z,102671.00
2022-10-07T06:19:15.095Z,102674.00
2022-10-07T06:21:52.466Z,102682.00
2022-10-07T06:24:25.704Z,102689.00
2022-10-07T06:26:58.620Z,102692.00
2022-10-07T06:29:31.679Z,102704.00
2022-10-07T06:32:04.674Z,102714.00
2022-10-07T06:34:37.658Z,102713.00
2022-10-07T06:37:11.055Z,102716.00
2022-10-07T06:39:43.867Z,102716.00
2022-10-07T06:42:21.626Z,102711.00
2022-10-07T06:44:55.782Z,102719.00
2022-10-07T06:47:30.277Z,102723.00
2022-10-07T06:50:03.812Z,102734.00
2022-10-07T06:52:40.027Z,102723.00
2022-10-07T06:55:11.927Z,102732.00
2022-10-07T06:57:46.196Z,102735.00
2022-10-07T07:00:19.434Z,102731.00
2022-10-07T07:02:52.389Z,102731.00
2022-10-07T07:05:25.683Z,102745.00
2022-10-07T07:07:59.858Z,102743.00
2022-10-07T07:10:32.796Z,102747.00
2022-10-07T07:13:07.355Z,102757.00
2022-10-07T07:15:40.815Z,102748.00
2022-10-07T07:18:14.739Z,102752.00
2022-10-07T07:20:47.491Z,102757.00
2022-10-07T07:23:20.933Z,102750.00
2022-10-07T07:25:54.256Z,102756.00
2022-10-07T07:28:27.325Z,102758.00
2022-10-07T07:31:00.766Z,102769.00
2022-10-07T07:33:33.797Z,102767.00
2022-10-07T07:36:07.708Z,102767.00
2022-10-07T07:38:41.700Z,102770.00
2022-10-07T07:41:14.698Z,102772.00
2022-10-07T07:43:49.259Z,102777.00
2022-10-07T07:46:23.850Z,102784.00
2022-10-07T07:48:57.762Z,102781.00
2022-10-07T07:51:31.015Z,102795.00
2022-10-07T07:54:04.141Z,102802.00
2022-10-07T07:56:37.421Z,102795.00
2022-10-07T07:59:10.815Z,102804.00
2022-10-07T08:01:45.729Z,102805.00
2022-10-07T08:04:18.743Z,102807.00
2022-10-07T08:06:51.551Z,102823.00
2022-10-07T08:09:24.473Z,102820.00
2022-10-07T08:11:58.161Z,102824.00
2022-10-07T08:14:31.557Z,102827.00
2022-10-07T08:17:04.518Z,102824.00
2022-10-07T08:19:37.582Z,102835.00
2022-10-07T08:22:11.357Z,102840.00
2022-10-07T08:24:45.082Z,102840.00
2022-10-07T08:27:18.051Z,102848.00
2022-10-07T08:29:51.415Z,102861.00
2022-10-07T08:32:24.465Z,102859.00
2022-10-07T08:34:57.509Z,102857.00
2022-10-07T08:37:30.745Z,102859.00
2022-10-07T08:40:03.815Z,102865.00
2022-10-07T08:42:44.641Z,102860.00
2022-10-07T08:45:19.578Z,102869.00
2022-10-07T08:47:54.250Z,102866.00
2022-10-07T08:50:29.937Z,102869.00
2022-10-07T08:53:07.969Z,102870.00
2022-10-07T08:55:52.011Z,102858.00
2022-10-07T08:58:35.967Z,102864.00
2022-10-07T09:01:42.549Z,102867.00
2022-10-07T09:04:35.283Z,102863.00
2022-10-07T09:07:22.826Z,102863.00
2022-10-07T09:10:07.243Z,102878.00
2022-10-07T09:12:42.215Z,102869.00
2022-10-07T09:15:23.816Z,102880.00
2022-10-07T09:18:01.830Z,102869.00
2022-10-07T09:20:36.455Z,102884.00
2022-10-07T09:23:12.220Z,102890.00
2022-10-07T09:25:45.798Z,102877.00
2022-10-07T09:28:21.061Z,102885.00
2022-10-07T09:30:53.911Z,102890.00
2022-10-07T09:33:28.004Z,102881.00
2022-10-07T09:36:11.865Z,102881.00
2022-10-07T09:38:49.817Z,102885.00
2022-10-07T09:41:31.604Z,102897.00
2022-10-07T09:44:08.977Z,102896.00
2022-10-07T09:46:53.267Z,102898.00
2022-10-07T09:49:37.323Z,102902.00
2022-10-07T09:52:21.359Z,102908.00
2022-10-07T09:54:56.538Z,102897.00
2022-10-07T09:57:34.891Z,102905.00
2022-10-07T10:00:15.719Z,102903.00
2022-10-07T10:02:59.185Z,102888.00
2022-10-07T10:05:35.896Z,102895.00
2022-10-07T10:08:29.055Z,102901.00
2022-10-07T10:11:04.403Z,102897.00
2022-10-07T10:13:42.770Z,102911.00
2022-10-07T10:16:33.933Z,102900.00
2022-10-07T10:19:08.814Z,102909.00
2022-10-07T10:21:49.172Z,102913.00
2022-10-07T10:24:23.764Z,102912.00
2022-10-07T10:27:23.011Z,102897.00
2022-10-07T10:30:01.292Z,102908.00
2022-10-07T10:32:39.563Z,102908.00
2022-10-07T10:35:20.534Z,102915.00
2022-10-07T10:38:10.378Z,102900.00
2022-10-07T10:40:49.674Z,102900.00
2022-10-07T10:43:30.881Z,102908.00
2022-10-07T10:46:22.099Z,102907.00
2022-10-07T10:49:05.979Z,102905.00
2022-10-07T10:51:44.294Z,102907.00
2022-10-07T10:54:33.977Z,102907.00
2022-10-07T10:57:28.123Z,102919.00
2022-10-07T11:00:15.027Z,102917.00
2022-10-07T11:03:10.241Z,102923.00
2022-10-07T11:05:44.633Z,102922.00
2022-10-07T11:08:27.346Z,102920.00
2022-10-07T11:11:04.437Z,102922.00
2022-10-07T11:13:56.275Z,102926.00
2022-10-07T11:16:32.755Z,102925.00
2022-10-07T11:19:24.378Z,102940.00
2022-10-07T11:21:59.190Z,102932.00
2022-10-07T11:24:39.899Z,102935.00
2022-10-07T11:27:31.017Z,102939.00
2022-10-07T11:30:27.567Z,102936.00
2022-10-07T11:33:05.442Z,102933.00
2022-10-07T11:35:40.112Z,102933.00
2022-10-07T11:38:17.977Z,102935.00
2022-10-07T11:41:04.449Z,102945.00
2022-10-07T11:43:50.902Z,102948.00
2022-10-07T11:46:41.020Z,102952.00
2022-10-07T11:49:33.998Z,102955.00
2022-10-07T11:52:11.146Z,102956.00
2022-10-07T11:54:49.120Z,102955.00
2022-10-07T11:57:26.893Z,102957.00
2022-10-07T12:00:13.917Z,102967.00
2022-10-07T12:02:51.104Z,102965.00
2022-10-07T12:05:41.879Z,102970.00
2022-10-07T12:08:35.217Z,102975.00
2022-10-07T12:11:19.332Z,102977.00
2022-10-07T12:13:56.710Z,102970.00
2022-10-07T12:16:35.257Z,102973.00
2022-10-07T12:19:15.895Z,102979.00
2022-10-07T12:22:18.309Z,102970.00
2022-10-07T12:24:54.294Z,102971.00
2022-10-07T12:27:32.599Z,102966.00
2022-10-07T12:30:05.780Z,102970.00
2022-10-07T12:32:59.270Z,102972.00
2022-10-07T12:35:43.764Z,102966.00
2022-10-07T12:38:19.133Z,102963.00
2022-10-07T12:41:12.107Z,102971.00
2022-10-07T12:43:47.357Z,102973.00
2022-10-07T12:46:22.392Z,102970.00
2022-10-07T12:49:03.529Z,102966.00
2022-10-07T12:51:41.289Z,102965.00
2022-10-07T12:54:25.857Z,102968.00
2022-10-07T12:56:59.101Z,102967.00
2022-10-07T12:59:52.231Z,102978.00
2022-10-07T13:02:48.749Z,102969.00
2022-10-07T13:05:49.307Z,102975.00
2022-10-07T13:08:42.539Z,102969.00
2022-10-07T13:11:46.921Z,102969.00
2022-10-07T13:14:17.900Z,102975.00
2022-10-07T13:17:17.338Z,102971.00
2022-10-07T13:19:55.513Z,102978.00
2022-10-07T13:22:29.033Z,102979.00
2022-10-07T13:25:04.180Z,102979.00
2022-10-07T13:27:40.605Z,102974.00
2022-10-07T13:30:21.851Z,102978.00
2022-10-07T13:32:54.739Z,102968.00
2022-10-07T13:35:39.812Z,102959.00
2022-10-07T13:38:15.200Z,102973.00
2022-10-07T13:40:48.312Z,102969.00
2022-10-07T13:43:21.323Z,102966.00
2022-10-07T13:45:54.391Z,102968.00
2022-10-07T13:48:31.944Z,102968.00
2022-10-07T13:51:06.173Z,102966.00
2022-10-07T13:53:43.453Z,102966.00
2022-10-07T13:56:45.376Z,102955.00
2022-10-07T13:59:19.956Z,102964.00
2022-10-07T14:01:57.829Z,102959.00
2022-10-07T14:04:33.006Z,102958.00
2022-10-07T14:07:17.501Z,102964.00
2022-10-07T14:09:52.332Z,102966.00
2022-10-07T14:12:27.072Z,102957.00
2022-10-07T14:15:02.249Z,102961.00
2022-10-07T14:17:46.570Z,102978.00
2022-10-07T14:20:27.536Z,102973.00
2022-10-07T14:23:02.367Z,102971.00
2022-10-07T14:25:52.409Z,102973.00
2022-10-07T14:28:36.147Z,102977.00
2022-10-07T14:31:32.297Z,102988.00
2022-10-07T14:34:35.880Z,102981.00
2022-10-07T14:37:17.833Z,102990.00
2022-10-07T14:39:55.037Z,102991.00
2022-10-07T14:42:33.013Z,102983.00
2022-10-07T14:45:09.725Z,102988.00
2022-10-07T14:47:43.349Z,102986.00
2022-10-07T14:50:18.693Z,102989.00
2022-10-07T14:52:55.706Z,102988.00
2022-10-07T14:55:30.874Z,102986.00
2022-10-07T14:58:04.050Z,103004.00
2022-10-07T15:00:39.680Z,103003.00
2022-10-07T15:03:11.149Z,103000.00
2022-10-07T15:05:47.062Z,102999.00
2022-10-07T15:08:20.610Z,102999.00
2022-10-07T15:10:53.689Z,102997.00
2022-10-07T15:13:26.747Z,103005.00
2022-10-07T15:15:59.762Z,103004.00
2022-10-07T15:18:32.878Z,103000.00
2022-10-07T15:21:06.120Z,103008.00
2022-10-07T15:23:39.467Z,103004.00
2022-10-07T15:26:13.297Z,103009.00
2022-10-07T15:28:46.746Z,103011.00
2022-10-07T15:31:19.982Z,103022.00
2022-10-07T15:33:53.157Z,103006.00
2022-10-07T15:36:26.705Z,103020.00
2022-10-07T15:39:02.291Z,103021.00
2022-10-07T15:41:40.136Z,103031.00
2022-10-07T15:44:18.211Z,103018.00
2022-10-07T15:46:52.415Z,103028.00
2022-10-07T15:49:25.610Z,103037.00
2022-10-07T15:51:58.998Z,103039.00
2022-10-07T15:54:32.520Z,103039.00
2022-10-07T15:57:05.602Z,103028.00
2022-10-07T15:59:38.710Z,103041.00
2022-10-07T16:02:14.702Z,103036.00
2022-10-07T16:04:49.307Z,103041.00
2022-10-07T16:07:22.456Z,103040.00
2022-10-07T16:09:55.842Z,103042.00
2022-10-07T16:12:28.788Z,103049.00
2022-10-07T16:15:01.736Z,103055.00
2022-10-07T16:17:34.763Z,103052.00
2022-10-07T16:20:11.200Z,103054.00
2022-10-07T16:22:42.187Z,103058.00
2022-10-07T16:25:16.523Z,103059.00
2022-10-07T16:28:06.498Z,103060.00
2022-10-07T16:30:51.026Z,103064.00
2022-10-07T16:33:24.132Z,103067.00
2022-10-07T16:35:57.269Z,103079.00
2022-10-07T16:38:30.344Z,103078.00
2022-10-07T16:41:04.235Z,103086.00
2022-10-07T16:43:37.926Z,103082.00
2022-10-07T16:46:13.053Z,103086.00
2022-10-07T16:48:47.153Z,103096.00
2022-10-07T16:51:25.574Z,103090.00
2022-10-07T16:54:06.131Z,103096.00
2022-10-07T16:56:40.227Z,103100.00
2022-10-07T16:59:18.512Z,103103.00
2022-10-07T17:01:53.714Z,103111.00
2022-10-07T17:04:27.424Z,103104.00
2022-10-07T17:07:00.381Z,103109.00
2022-10-07T17:09:33.631Z,103117.00
2022-10-07T17:12:08.184Z,103129.00
2022-10-07T17:14:41.179Z,103126.00
2022-10-07T17:17:14.477Z,103132.00
2022-10-07T17:19:47.752Z,103128.00
2022-10-07T17:22:20.816Z,103137.00
2022-10-07T17:24:54.286Z,103143.00
2022-10-07T17:27:27.305Z,103134.00
2022-10-07T17:30:06.914Z,103138.00
2022-10-07T17:32:40.286Z,103157.00
2022-10-07T17:35:13.881Z,103160.00
2022-10-07T17:37:47.231Z,103157.00
2022-10-07T17:40:20.301Z,103171.00
2022-10-07T17:42:53.490Z,103167.00
2022-10-07T17:45:27.231Z,103167.00
2022-10-07T17:48:00.532Z,103172.00
2022-10-07T17:50:34.324Z,103178.00
2022-10-07T17:53:08.474Z,103186.00
2022-10-07T17:55:41.683Z,103189.00
2022-10-07T17:58:14.476Z,103197.00
2022-10-07T18:00:47.368Z,103201.00
2022-10-07T18:03:20.477Z,103191.00
2022-10-07T18:05:57.172Z,103211.00
2022-10-07T18:08:30.143Z,103213.00
2022-10-07T18:11:03.181Z,103212.00
2022-10-07T18:13:59.547Z,103207.00
2022-10-07T18:16:31.309Z,103221.00
2022-10-07T18:19:10.069Z,103221.00
2022-10-07T18:21:43.139Z,103226.00
2022-10-07T18:24:16.068Z,103227.00
2022-10-07T18:26:49.212Z,103240.00
2022-10-07T18:29:22.209Z,103239.00
2022-10-07T18:31:55.763Z,103243.00
2022-10-07T18:34:29.049Z,103239.00
2022-10-07T18:37:02.056Z,103244.00
2022-10-07T18:39:35.176Z,103247.00
2022-10-07T18:42:08.434Z,103247.00
2022-10-07T18:44:41.404Z,103261.00
2022-10-07T18:47:14.674Z,103256.00
2022-10-07T18:49:47.756Z,103261.00
2022-10-07T18:52:20.724Z,103263.00
2022-10-07T18:54:53.528Z,103261.00
2022-10-07T18:57:26.337Z,103276.00
2022-10-07T18:59:59.296Z,103272.00
2022-10-07T19:02:32.564Z,103259.00
2022-10-07T19:05:05.420Z,103270.00
2022-10-07T19:07:38.771Z,103270.00
2022-10-07T19:10:12.552Z,103269.00
2022-10-07T19:13:02.548Z,103277.00
2022-10-07T19:15:35.828Z,103283.00
2022-10-07T19:18:09.305Z,103276.00
2022-10-07T19:20:43.193Z,103296.00
2022-10-07T19:23:16.199Z,103297.00
2022-10-07T19:25:49.591Z,103300.00
2022-10-07T19:28:23.376Z,103314.00
2022-10-07T19:30:57.610Z,103305.00
2022-10-07T19:33:30.606Z,103314.00
2022-10-07T19:36:04.328Z,103322.00
2022-10-07T19:38:37.233Z,103311.00
2022-10-07T19:41:12.243Z,103320.00
2022-10-07T19:43:46.988Z,103312.00
2022-10-07T19:46:21.100Z,103337.00
2022-10-07T19:48:55.646Z,103342.00
2022-10-07T19:51:29.587Z,103344.00
2022-10-07T19:54:03.507Z,103348.00
2022-10-07T19:56:40.650Z,103354.00
2022-10-07T19:59:15.326Z,103353.00
2022-10-07T20:01:50.454Z,103348.00
2022-10-07T20:04:24.062Z,103369.00
2022-10-07T20:06:57.319Z,103357.00
2022-10-07T20:09:30.152Z,103368.00
2022-10-07T20:12:03.448Z,103370.00
2022-10-07T20:14:37.230Z,103365.00
2022-10-07T20:17:10.179Z,103374.00
2022-10-07T20:19:43.136Z,103373.00
2022-10-07T20:22:16.056Z,103376.00
2022-10-07T20:24:48.820Z,103383.00
2022-10-07T20:27:22.180Z,103375.00
2022-10-07T20:30:01.717Z,103378.00
2022-10-07T20:32:36.287Z,103391.00
2022-10-07T20:35:11.338Z,103395.00
2022-10-07T20:37:50.815Z,103397.00
2022-10-07T20:40:41.156Z,103393.00
2022-10-07T20:43:14.910Z,103398.00
2022-10-07T20:46:01.010Z,103410.00
2022-10-07T20:48:35.233Z,103404.00
2022-10-07T20:51:12.175Z,103400.00
2022-10-07T20:53:46.437Z,103397.00
2022-10-07T20:56:19.313Z,103395.00
2022-10-07T20:58:52.282Z,103402.00
2022-10-07T21:01:25.381Z,103403.00
2022-10-07T21:03:58.277Z,103401.00
2022-10-07T21:06:31.330Z,103384.00
2022-10-07T21:09:04.542Z,103389.00
2022-10-07T21:11:37.816Z,103398.00
2022-10-07T21:14:10.717Z,103410.00
2022-10-07T21:16:44.063Z,103408.00
2022-10-07T21:19:17.748Z,103403.00
2022-10-07T21:21:50.953Z,103393.00
2022-10-07T21:24:24.217Z,103396.00
2022-10-07T21:26:57.200Z,103394.00
2022-10-07T21:29:31.425Z,103391.00
2022-10-07T21:32:05.607Z,103414.00
2022-10-07T21:34:38.837Z,103403.00
2022-10-07T21:37:12.240Z,103395.00
2022-10-07T21:39:45.172Z,103399.00
2022-10-07T21:42:18.726Z,103397.00
2022-10-07T21:44:51.755Z,103402.00
2022-10-07T21:47:24.664Z,103402.00
2022-10-07T21:49:58.624Z,103402.00
2022-10-07T21:52:31.678Z,103413.00
2022-10-07T21:55:04.855Z,103418.00
2022-10-07T21:57:37.944Z,103416.00
2022-10-07T22:00:13.338Z,103423.00
2022-10-07T22:02:46.578Z,103420.00
2022-10-07T22:05:19.764Z,103423.00
2022-10-07T22:08:10.861Z,103432.00
2022-10-07T22:10:43.626Z,103427.00
2022-10-07T22:13:16.920Z,103431.00
2022-10-07T22:15:56.179Z,103429.00
2022-10-07T22:18:29.337Z,103435.00
2022-10-07T22:21:02.339Z,103430.00
2022-10-07T22:23:35.220Z,103432.00
2022-10-07T22:26:09.603Z,103428.00
2022-10-07T22:28:43.411Z,103424.00
2022-10-07T22:31:17.373Z,103421.00
2022-10-07T22:33:58.545Z,103426.00
2022-10-07T22:36:32.327Z,103419.00
2022-10-07T22:39:05.448Z,103423.00
2022-10-07T22:41:38.467Z,103417.00
2022-10-07T22:44:12.029Z,103424.00
2022-10-07T22:46:47.625Z,103424.00
2022-10-07T22:49:20.775Z,103428.00
2022-10-07T22:51:54.223Z,103432.00
2022-10-07T22:54:27.450Z,103432.00
2022-10-07T22:57:00.646Z,103424.00
2022-10-07T22:59:36.476Z,103432.00
2022-10-07T23:02:10.547Z,103432.00
2022-10-07T23:04:43.575Z,103434.00
2022-10-07T23:07:20.867Z,103435.00
2022-10-07T23:09:53.978Z,103432.00
2022-10-07T23:12:27.610Z,103430.00
2022-10-07T23:15:00.776Z,103431.00
2022-10-07T23:17:33.821Z,103430.00
2022-10-07T23:20:06.902Z,103437.00
2022-10-07T23:22:41.195Z,103428.00
2022-10-07T23:25:17.737Z,103427.00
2022-10-07T23:27:50.859Z,103426.00
2022-10-07T23:30:24.218Z,103432.00
2022-10-07T23:32:58.193Z,103436.00
2022-10-07T23:35:32.837Z,103436.00
2022-10-07T23:38:06.338Z,103431.00
2022-10-07T23:40:39.318Z,103435.00
2022-10-07T23:43:13.183Z,103442.00
2022-10-07T23:45:47.148Z,103440.00
2022-10-07T23:48:20.954Z,103440.00
2022-10-07T23:50:54.457Z,103439.00
2022-10-07T23:53:27.693Z,103437.00
2022-10-07T23:56:00.589Z,103442.00
2022-10-07T23:58:34.354Z,103451.00
